Time;durP1;ratioP1;P1;durP2;ratioP2;P2;SDS_P1;SDS_P2;PMS_P1;PMS_P2;Temp;Humidity;BMP_temperature;BMP_pressure;BME280_temperature;BME280_humidity;BME280_pressure;Samples;Min_cycle;Max_cycle;Signal;HPM_P1;HPM_P2
2023/01/31 00:01:27;;;;;;;9.23;2.85;;;3.70;99.90;;;;;;5030071;28;20409;-60
2023/01/31 00:03:54;;;;;;;13.48;2.92;;;3.60;1.00;;;;;;5028166;28;20792;-59
2023/01/31 00:06:26;;;;;;;8.50;3.05;;;5.30;99.90;;;;;;5029576;28;20379;-62
2023/01/31 00:08:53;;;;;;;9.13;2.78;;;3.40;99.90;;;;;;5029303;28;20394;-57
2023/01/31 00:11:21;;;;;;;11.20;3.20;;;3.50;45.40;;;;;;5030237;28;20430;-59
2023/01/31 00:13:47;;;;;;;10.00;2.72;;;3.60;1.00;;;;;;5029909;28;20485;-59
2023/01/31 00:16:15;;;;;;;10.50;3.10;;;3.40;1.00;;;;;;5029092;28;20430;-61
2023/01/31 00:18:41;;;;;;;9.80;3.15;;;3.40;99.90;;;;;;5029700;28;20406;-59
2023/01/31 00:21:08;;;;;;;10.02;2.88;;;3.40;1.00;;;;;;5029170;28;20814;-60
2023/01/31 00:23:34;;;;;;;9.10;2.92;;;3.40;99.90;;;;;;5029624;28;20371;-59
2023/01/31 00:26:14;;;;;;;8.48;2.88;;;4.90;1.00;;;;;;5028356;28;20994;-59
2023/01/31 00:28:40;;;;;;;8.90;3.30;;;3.30;1.00;;;;;;5029388;28;20455;-59
2023/01/31 00:31:06;;;;;;;14.50;3.80;;;3.30;99.90;;;;;;5028693;28;20383;-59
2023/01/31 00:33:33;;;;;;;8.35;2.90;;;4.60;99.90;;;;;;5029762;28;20398;-59
2023/01/31 00:36:02;;;;;;;8.88;3.20;;;3.30;99.90;;;;;;5028850;28;20371;-61
2023/01/31 00:38:28;;;;;;;7.03;2.05;;;3.30;99.90;;;;;;5029399;28;20441;-61
2023/01/31 00:40:54;;;;;;;6.30;2.28;;;3.30;99.90;;;;;;5044163;28;20411;-61
2023/01/31 00:43:20;;;;;;;9.82;3.20;;;3.30;99.90;;;;;;5029483;28;20387;-60
2023/01/31 00:45:46;;;;;;;13.60;3.10;;;3.40;1.00;;;;;;5029112;28;20406;-59
2023/01/31 00:48:12;;;;;;;9.55;3.20;;;3.40;1.00;;;;;;5032473;28;20391;-59
2023/01/31 00:50:37;;;;;;;8.10;2.65;;;3.40;99.90;;;;;;5033527;28;20779;-59
2023/01/31 00:53:03;;;;;;;9.75;3.33;;;3.30;99.90;;;;;;5032627;28;20424;-59
2023/01/31 00:55:29;;;;;;;13.17;3.43;;;3.30;99.90;;;;;;5033262;28;20379;-59
2023/01/31 00:57:54;;;;;;;12.77;3.53;;;3.30;99.90;;;;;;5033183;28;20402;-60
2023/01/31 01:00:20;;;;;;;7.03;2.67;;;3.30;1.00;;;;;;5032887;28;20390;-59
2023/01/31 01:02:46;;;;;;;11.60;2.50;;;3.30;1.00;;;;;;5032707;28;20426;-60
2023/01/31 01:05:11;;;;;;;8.00;2.67;;;3.30;1.00;;;;;;5032126;28;20390;-60
2023/01/31 01:07:37;;;;;;;7.38;2.35;;;3.50;1.00;;;;;;5032662;28;20426;-60
2023/01/31 01:10:04;;;;;;;12.47;3.50;;;3.30;1.00;;;;;;5032382;28;20837;-60
2023/01/31 01:12:29;;;;;;;9.00;2.53;;;3.30;1.00;;;;;;5032622;28;20470;-60
2023/01/31 01:14:55;;;;;;;9.05;3.10;;;3.30;1.00;;;;;;5032186;28;20486;-60
2023/01/31 01:17:20;;;;;;;10.80;3.40;;;3.30;1.00;;;;;;5032773;28;20783;-60
2023/01/31 01:19:46;;;;;;;11.37;2.87;;;4.60;1.00;;;;;;5032796;28;20464;-60
2023/01/31 01:22:15;;;;;;;9.60;2.70;;;3.30;99.90;;;;;;5032484;28;20414;-60
2023/01/31 01:24:42;;;;;;;9.50;2.80;;;3.20;1.00;;;;;;5032582;28;20492;-60
2023/01/31 01:27:08;;;;;;;7.93;2.47;;;3.10;99.90;;;;;;5031955;28;20410;-60
2023/01/31 01:29:34;;;;;;;9.15;3.22;;;3.00;1.00;;;;;;5032600;28;20379;-60
2023/01/31 01:32:00;;;;;;;9.40;2.70;;;3.00;99.90;;;;;;5031700;28;20380;-60
2023/01/31 01:34:25;;;;;;;12.30;3.30;;;3.00;1.00;;;;;;5030974;28;20465;-60
2023/01/31 01:36:51;;;;;;;8.93;3.53;;;3.10;99.90;;;;;;5031831;28;20976;-58
2023/01/31 01:39:17;;;;;;;7.95;2.67;;;3.10;99.90;;;;;;5032160;28;20415;-60
2023/01/31 01:41:43;;;;;;;8.65;2.63;;;4.30;99.90;;;;;;5032373;28;20430;-60
2023/01/31 01:44:47;;;;;;;6.93;2.38;;;3.20;99.90;;;;;;5031791;28;20384;-60
2023/01/31 01:47:15;;;;;;;12.57;3.30;;;3.30;1.00;;;;;;5031858;28;20387;-60
2023/01/31 01:49:41;;;;;;;9.75;3.13;;;3.20;92.60;;;;;;5031639;28;20459;-61
2023/01/31 01:52:09;;;;;;;12.48;3.30;;;3.60;99.90;;;;;;5032045;28;20402;-61
2023/01/31 01:54:55;;;;;;;10.25;2.97;;;3.20;99.90;;;;;;5032100;28;20398;-61
2023/01/31 01:57:29;;;;;;;10.32;3.20;;;3.10;1.00;;;;;;5032229;28;20384;-61
2023/01/31 02:00:18;;;;;;;10.13;3.65;;;3.10;99.90;;;;;;5031103;28;20375;-60
2023/01/31 02:02:46;;;;;;;11.48;3.60;;;3.20;99.90;;;;;;5031848;28;20474;-61
2023/01/31 02:05:16;;;;;;;8.27;3.28;;;3.20;1.00;;;;;;5031506;28;20516;-61
2023/01/31 02:07:42;;;;;;;9.88;3.20;;;3.20;99.90;;;;;;5031841;28;20466;-60
2023/01/31 02:10:18;;;;;;;10.23;3.63;;;3.40;16.90;;;;;;5031356;28;20481;-61
2023/01/31 02:12:45;;;;;;;11.10;4.30;;;4.40;34.30;;;;;;5031703;28;20906;-61
2023/01/31 02:15:10;;;;;;;12.88;3.85;;;3.10;1.00;;;;;;5030991;28;20880;-61
2023/01/31 02:17:36;;;;;;;12.52;4.35;;;3.10;99.90;;;;;;5031771;28;20409;-61
2023/01/31 02:20:24;;;;;;;9.82;3.78;;;3.10;99.90;;;;;;5030963;28;20391;-61
2023/01/31 02:23:06;;;;;;;10.77;3.30;;;3.10;1.00;;;;;;5031743;28;20868;-61
2023/01/31 02:26:05;;;;;;;14.67;4.10;;;3.10;1.00;;;;;;5031191;28;20410;-60
2023/01/31 02:28:55;;;;;;;13.48;4.10;;;3.20;95.00;;;;;;5031601;28;20846;-61
2023/01/31 02:31:51;;;;;;;13.07;4.50;;;3.20;99.90;;;;;;5031410;28;20762;-61
2023/01/31 02:34:36;;;;;;;9.63;3.70;;;3.20;99.90;;;;;;5031005;28;20387;-60
2023/01/31 02:37:29;;;;;;;13.18;4.93;;;3.10;99.90;;;;;;5030777;28;20423;-60
2023/01/31 02:40:32;;;;;;;12.25;4.40;;;3.10;1.00;;;;;;5030732;28;20456;-60
2023/01/31 02:43:09;;;;;;;16.47;4.90;;;3.00;1.00;;;;;;5031033;28;20391;-60
2023/01/31 02:45:41;;;;;;;14.30;5.00;;;4.30;48.90;;;;;;5031357;28;20383;-60
2023/01/31 02:48:18;;;;;;;9.65;4.30;;;3.00;99.90;;;;;;5030838;28;20853;-60
2023/01/31 02:50:56;;;;;;;12.32;3.67;;;3.00;99.90;;;;;;5030984;28;20391;-60
2023/01/31 02:54:16;;;;;;;14.30;4.40;;;3.00;99.90;;;;;;5030794;28;20375;-60
2023/01/31 02:56:45;;;;;;;13.25;5.15;;;3.20;36.70;;;;;;5014426;28;20407;-60
2023/01/31 02:59:25;;;;;;;14.25;4.80;;;3.20;1.00;;;;;;5030615;28;20414;-64
2023/01/31 03:01:56;;;;;;;11.45;4.28;;;3.20;1.00;;;;;;5030475;28;20383;-58
2023/01/31 03:04:22;;;;;;;13.53;4.00;;;3.20;1.00;;;;;;5030879;28;20375;-60
2023/01/31 03:07:12;;;;;;;10.30;4.10;;;3.20;1.00;;;;;;5030538;28;20384;-60
2023/01/31 03:09:58;;;;;;;9.50;3.80;;;3.20;1.00;;;;;;5030596;28;20462;-61
2023/01/31 03:12:46;;;;;;;10.15;3.90;;;3.90;1.00;;;;;;5030811;28;20833;-60
2023/01/31 03:18:25;;;;;;;14.15;4.63;;;3.10;43.90;;;;;;5030498;28;20449;-60
2023/01/31 03:21:14;;;;;;;12.95;5.20;;;4.40;99.90;;;;;;5030450;28;20778;-59
2023/01/31 03:23:44;;;;;;;14.38;4.63;;;3.30;96.00;;;;;;5030740;28;20466;-61
2023/01/31 03:26:11;;;;;;;11.20;5.07;;;3.30;1.00;;;;;;5030370;28;20895;-61
2023/01/31 03:28:41;;;;;;;10.85;4.50;;;3.30;1.00;;;;;;5030496;28;20403;-61
2023/01/31 03:31:18;;;;;;;12.00;4.10;;;3.30;1.00;;;;;;5045091;28;20392;-61
2023/01/31 03:33:50;;;;;;;11.90;4.18;;;3.20;1.00;;;;;;5070050;28;20384;-61
2023/01/31 03:36:38;;;;;;;15.10;4.45;;;3.20;1.00;;;;;;5069334;28;20384;-61
2023/01/31 03:39:28;;;;;;;12.25;4.50;;;3.30;1.00;;;;;;5069594;28;20404;-61
2023/01/31 03:42:09;;;;;;;12.38;4.90;;;3.30;1.00;;;;;;5069746;28;20421;-60
2023/01/31 03:44:55;;;;;;;12.25;3.50;;;3.30;1.00;;;;;;5068988;28;20774;-61
2023/01/31 03:47:32;;;;;;;9.43;3.77;;;3.30;99.90;;;;;;5069917;28;20376;-60
2023/01/31 03:50:04;;;;;;;10.65;3.80;;;3.40;99.90;;;;;;5069119;28;20379;-61
2023/01/31 03:52:37;;;;;;;14.07;3.95;;;3.30;99.90;;;;;;5070439;28;20446;-60
2023/01/31 03:55:19;;;;;;;15.10;4.45;;;3.30;1.00;;;;;;5069152;28;20417;-60
2023/01/31 03:57:49;;;;;;;15.45;4.30;;;3.30;1.00;;;;;;5069613;28;20404;-61
2023/01/31 04:00:17;;;;;;;16.50;4.60;;;3.70;79.40;;;;;;5068944;28;20380;-58
2023/01/31 04:02:42;;;;;;;12.98;4.10;;;3.30;1.00;;;;;;5033877;28;21035;-60
2023/01/31 04:05:12;;;;;;;9.20;3.87;;;3.10;99.90;;;;;;5036564;28;20468;-60
2023/01/31 04:07:38;;;;;;;11.95;4.70;;;3.10;1.00;;;;;;5048096;28;20393;-61
2023/01/31 04:10:11;;;;;;;13.13;3.40;;;3.00;1.00;;;;;;5028327;28;20471;-60
2023/01/31 04:12:37;;;;;;;10.77;4.03;;;3.00;1.00;;;;;;5029637;28;20379;-60
2023/01/31 04:15:04;;;;;;;13.60;4.40;;;4.30;1.00;;;;;;5037686;28;20413;-59
2023/01/31 04:17:30;;;;;;;14.23;4.03;;;2.90;1.00;;;;;;5067269;28;20380;-60
2023/01/31 04:19:56;;;;;;;14.93;4.18;;;2.80;1.00;;;;;;5069330;28;20376;-58
2023/01/31 04:22:21;;;;;;;11.85;3.90;;;2.90;1.00;;;;;;5072015;28;20433;-60
2023/01/31 04:24:47;;;;;;;11.77;4.20;;;2.80;1.00;;;;;;5074167;28;20431;-60
2023/01/31 04:27:12;;;;;;;11.60;4.00;;;2.80;1.00;;;;;;5073148;28;20399;-60
2023/01/31 04:29:39;;;;;;;10.00;3.90;;;2.70;1.00;;;;;;5073772;28;20384;-60
2023/01/31 04:32:05;;;;;;;17.33;4.40;;;2.80;1.70;;;;;;5067091;28;20807;-60
2023/01/31 04:34:31;;;;;;;15.37;4.53;;;2.80;1.00;;;;;;5065918;28;20381;-60
2023/01/31 04:36:56;;;;;;;19.70;5.33;;;2.70;1.00;;;;;;5053275;28;20377;-60
2023/01/31 04:39:22;;;;;;;10.82;4.43;;;2.70;1.00;;;;;;5053799;28;20739;-60
2023/01/31 04:41:47;;;;;;;15.00;4.60;;;2.60;26.90;;;;;;5053523;28;20377;-61
2023/01/31 04:44:14;;;;;;;12.20;4.70;;;2.60;99.90;;;;;;5052723;28;20860;-60
2023/01/31 04:46:39;;;;;;;12.75;4.70;;;2.60;99.90;;;;;;5052972;28;20396;-60
2023/01/31 04:49:05;;;;;;;18.88;5.45;;;4.40;99.90;;;;;;5040674;28;20387;-60
2023/01/31 04:51:30;;;;;;;11.47;4.80;;;2.50;99.90;;;;;;5033079;28;20387;-60
2023/01/31 04:53:56;;;;;;;13.68;5.00;;;2.50;99.90;;;;;;5044067;28;20766;-58
2023/01/31 04:56:21;;;;;;;12.33;4.70;;;2.50;99.90;;;;;;5052865;28;20400;-60
2023/01/31 04:58:47;;;;;;;13.13;5.20;;;2.60;99.90;;;;;;5053198;28;20416;-60
2023/01/31 05:01:13;;;;;;;13.55;5.00;;;2.70;99.90;;;;;;5051238;28;20896;-60
2023/01/31 05:03:39;;;;;;;15.15;4.65;;;2.70;99.90;;;;;;5033155;28;20391;-60
2023/01/31 05:06:05;;;;;;;14.48;6.60;;;2.70;99.90;;;;;;5032424;28;20460;-60
2023/01/31 05:08:31;;;;;;;22.17;4.35;;;2.70;99.90;;;;;;5032772;28;20868;-60
2023/01/31 05:11:01;;;;;;;14.27;5.20;;;4.20;99.90;;;;;;5032466;28;20456;-60
2023/01/31 05:13:29;;;;;;;16.25;5.47;;;2.70;99.90;;;;;;5033281;28;20426;-60
2023/01/31 05:15:56;;;;;;;13.13;5.40;;;2.70;99.90;;;;;;5038510;28;20394;-58
2023/01/31 05:18:25;;;;;;;12.25;5.07;;;2.60;99.90;;;;;;5051487;28;20423;-60
2023/01/31 05:20:51;;;;;;;13.30;5.53;;;2.60;99.90;;;;;;5052215;28;20393;-60
2023/01/31 05:23:17;;;;;;;17.63;5.13;;;2.60;99.90;;;;;;5051692;28;20393;-59
2023/01/31 05:25:44;;;;;;;22.40;5.93;;;2.60;99.90;;;;;;5051802;28;20492;-60
2023/01/31 05:28:11;;;;;;;15.20;4.57;;;2.60;99.90;;;;;;5051669;28;20439;-60
2023/01/31 05:30:37;;;;;;;15.40;5.60;;;2.60;99.90;;;;;;5052450;28;20492;-60
2023/01/31 05:33:02;;;;;;;15.63;5.60;;;2.60;99.90;;;;;;5050325;28;20533;-60
2023/01/31 05:35:29;;;;;;;14.30;4.78;;;2.60;99.90;;;;;;5051887;28;20916;-60
2023/01/31 05:37:55;;;;;;;15.60;5.80;;;2.60;99.90;;;;;;5051809;28;20439;-60
2023/01/31 05:40:21;;;;;;;17.70;6.35;;;2.60;99.90;;;;;;5052249;28;20551;-60
2023/01/31 05:42:59;;;;;;;11.63;5.28;;;2.50;99.90;;;;;;5052303;28;20393;-60
2023/01/31 05:45:26;;;;;;;12.63;4.88;;;2.50;99.90;;;;;;5048444;28;20411;-60
2023/01/31 05:47:52;;;;;;;14.85;5.93;;;2.40;99.90;;;;;;5045384;28;20402;-60
2023/01/31 05:50:17;;;;;;;16.20;5.43;;;2.40;99.90;;;;;;5049358;28;20438;-60
2023/01/31 05:52:49;;;;;;;14.55;5.30;;;2.30;99.90;;;;;;5051801;28;20385;-60
2023/01/31 05:55:15;;;;;;;19.30;6.25;;;3.20;99.90;;;;;;5049095;28;20385;-60
2023/01/31 05:57:41;;;;;;;13.10;5.47;;;2.10;99.90;;;;;;5056531;28;20722;-62
2023/01/31 06:00:07;;;;;;;14.90;5.90;;;2.10;99.90;;;;;;5067134;28;21421;-61
2023/01/31 06:02:32;;;;;;;15.30;5.33;;;2.10;99.90;;;;;;5051409;28;20393;-61
2023/01/31 06:04:58;;;;;;;14.63;4.90;;;3.60;99.90;;;;;;5051050;28;20377;-61
2023/01/31 06:07:24;;;;;;;10.85;4.78;;;2.10;99.90;;;;;;5051622;28;20846;-61
2023/01/31 06:09:49;;;;;;;14.17;4.43;;;2.70;99.90;;;;;;5051665;28;20378;-61
2023/01/31 06:12:15;;;;;;;16.90;5.30;;;2.20;99.90;;;;;;5057141;28;20395;-61
2023/01/31 06:14:40;;;;;;;15.55;4.70;;;2.30;99.90;;;;;;5051020;28;20386;-61
2023/01/31 06:17:06;;;;;;;16.60;4.80;;;2.20;99.90;;;;;;5050829;28;20409;-61
2023/01/31 06:19:32;;;;;;;14.23;4.40;;;2.20;99.90;;;;;;5051694;28;20449;-61
2023/01/31 06:21:57;;;;;;;14.48;3.95;;;2.20;1.00;;;;;;5060412;28;20406;-58
2023/01/31 06:24:23;;;;;;;10.70;3.90;;;2.10;1.00;;;;;;5071077;28;20396;-61
2023/01/31 06:26:49;;;;;;;13.68;4.13;;;3.60;1.00;;;;;;5058969;28;20396;-61
2023/01/31 06:29:14;;;;;;;14.25;4.65;;;2.10;1.00;;;;;;5070830;28;20449;-60
2023/01/31 06:31:43;;;;;;;9.70;3.70;;;2.10;1.00;;;;;;5071221;28;20375;-60
2023/01/31 06:34:09;;;;;;;15.23;3.90;;;2.00;1.00;;;;;;5070235;28;20391;-61
2023/01/31 06:36:35;;;;;;;12.63;4.50;;;2.00;1.00;;;;;;5069625;28;20384;-60
2023/01/31 06:39:02;;;;;;;12.40;3.90;;;1.90;1.00;;;;;;5049795;28;20744;-60
2023/01/31 06:41:28;;;;;;;12.40;4.10;;;1.90;23.50;;;;;;5051376;28;20396;-61
2023/01/31 06:43:54;;;;;;;9.45;3.58;;;1.90;1.00;;;;;;5050355;28;20707;-60
2023/01/31 06:46:20;;;;;;;11.05;3.60;;;1.90;1.00;;;;;;5050452;28;20378;-60
2023/01/31 06:48:47;;;;;;;13.23;4.55;;;1.90;1.00;;;;;;5049893;28;20416;-61
2023/01/31 06:51:16;;;;;;;13.13;4.33;;;1.90;1.00;;;;;;5049994;28;20392;-60
2023/01/31 06:53:41;;;;;;;12.00;4.28;;;1.90;1.00;;;;;;5051586;28;20381;-60
2023/01/31 06:56:08;;;;;;;15.48;4.53;;;1.80;1.00;;;;;;5050208;28;20435;-60
2023/01/31 06:58:33;;;;;;;15.70;4.60;;;1.80;1.00;;;;;;5050831;28;20871;-60
2023/01/31 07:01:12;;;;;;;17.67;5.00;;;1.80;1.00;;;;;;5049920;28;20381;-60
2023/01/31 07:03:38;;;;;;;12.55;5.10;;;1.70;1.00;;;;;;5048279;28;20455;-60
2023/01/31 07:06:05;;;;;;;14.45;4.63;;;1.70;1.00;;;;;;5046628;28;20475;-60
2023/01/31 07:08:31;;;;;;;11.98;4.65;;;1.70;1.00;;;;;;5051037;28;20797;-60
2023/01/31 07:10:57;;;;;;;17.50;4.80;;;1.70;1.00;;;;;;5049942;28;20385;-58
2023/01/31 07:13:23;;;;;;;17.38;5.40;;;1.50;1.00;;;;;;5050483;28;20498;-60
2023/01/31 07:15:49;;;;;;;11.73;4.35;;;1.60;1.00;;;;;;5050275;28;20392;-60
2023/01/31 07:18:15;;;;;;;15.52;5.20;;;2.50;1.00;;;;;;5049279;28;20417;-60
2023/01/31 07:20:41;;;;;;;10.23;3.80;;;1.60;1.00;;;;;;5050358;28;20385;-60
2023/01/31 07:23:07;;;;;;;9.60;3.75;;;1.70;1.00;;;;;;5049707;28;20890;-60
2023/01/31 07:25:34;;;;;;;12.10;4.00;;;1.60;57.50;;;;;;5049606;28;20405;-60
2023/01/31 07:28:00;;;;;;;14.95;3.90;;;1.70;66.30;;;;;;5049433;28;20805;-60
2023/01/31 07:30:26;;;;;;;11.43;4.10;;;1.60;1.00;;;;;;5050101;28;20431;-60
2023/01/31 07:32:52;;;;;;;13.40;3.80;;;1.70;5.60;;;;;;5050198;28;20374;-60
2023/01/31 07:35:19;;;;;;;10.57;3.88;;;1.80;1.00;;;;;;5049017;28;20378;-62
2023/01/31 07:37:45;;;;;;;14.95;4.05;;;2.00;1.00;;;;;;5049956;28;20421;-60
2023/01/31 07:40:12;;;;;;;12.60;3.55;;;2.20;1.00;;;;;;5049062;28;20393;-60
2023/01/31 07:42:38;;;;;;;6.88;3.25;;;2.10;1.00;;;;;;5050088;28;20386;-60
2023/01/31 07:45:05;;;;;;;10.75;3.88;;;2.60;1.00;;;;;;5049834;28;20715;-60
2023/01/31 07:47:31;;;;;;;11.68;3.63;;;2.20;99.90;;;;;;5049650;28;20452;-60
2023/01/31 07:49:57;;;;;;;9.13;3.85;;;2.30;99.90;;;;;;5049442;28;20381;-59
2023/01/31 07:52:22;;;;;;;10.38;3.95;;;2.40;49.60;;;;;;5049808;28;20374;-61
2023/01/31 07:54:48;;;;;;;15.10;4.65;;;2.50;99.90;;;;;;5049720;28;20400;-59
2023/01/31 07:57:16;;;;;;;14.30;5.40;;;2.70;99.90;;;;;;5048733;28;20964;-61
2023/01/31 07:59:43;;;;;;;12.57;3.70;;;2.80;99.90;;;;;;5049476;28;20417;-59
2023/01/31 08:04:56;;;;;;;11.98;4.30;;;3.40;1.00;;;;;;5049770;28;20396;-57
2023/01/31 08:07:21;;;;;;;13.35;4.65;;;5.70;99.90;;;;;;5048884;28;20385;-60
2023/01/31 08:09:49;;;;;;;15.20;5.10;;;5.80;1.00;;;;;;5050190;28;20389;-61
2023/01/31 08:12:14;;;;;;;16.08;4.65;;;6.70;99.90;;;;;;5049187;28;20712;-60
2023/01/31 08:14:40;;;;;;;9.50;4.00;;;7.70;1.00;;;;;;5050039;28;20484;-61
2023/01/31 08:17:07;;;;;;;11.68;3.58;;;8.70;1.00;;;;;;5063768;28;20389;-61
2023/01/31 08:19:33;;;;;;;10.80;3.50;;;9.50;1.00;;;;;;5049413;28;20742;-61
2023/01/31 08:22:00;;;;;;;14.27;4.25;;;10.90;1.00;;;;;;5048783;28;20413;-59
2023/01/31 08:24:25;;;;;;;14.93;5.20;;;12.10;1.00;;;;;;5049507;28;20427;-62
2023/01/31 08:26:51;;;;;;;11.00;6.20;;;12.10;1.00;;;;;;5049546;28;20449;-61
2023/01/31 08:29:16;;;;;;;12.60;7.00;;;12.00;1.00;;;;;;5049290;28;20855;-61
2023/01/31 08:31:42;;;;;;;14.35;6.15;;;11.20;1.00;;;;;;5049271;28;20865;-60
2023/01/31 08:34:08;;;;;;;11.45;5.30;;;9.80;99.90;;;;;;5048458;28;20896;-60
2023/01/31 08:36:34;;;;;;;10.82;4.55;;;8.60;99.90;;;;;;5049285;28;20381;-60
2023/01/31 08:39:01;;;;;;;12.13;4.43;;;7.80;99.90;;;;;;5048768;28;20492;-58
2023/01/31 08:41:28;;;;;;;13.45;4.22;;;7.30;99.90;;;;;;5049569;28;20385;-61
2023/01/31 08:43:55;;;;;;;11.82;3.80;;;7.10;1.00;;;;;;5049204;28;20728;-60
2023/01/31 08:46:22;;;;;;;11.73;3.50;;;7.10;1.00;;;;;;5048756;28;20424;-63
2023/01/31 08:48:47;;;;;;;13.70;3.22;;;6.60;1.00;;;;;;5049453;28;20390;-62
2023/01/31 08:51:13;;;;;;;10.13;3.57;;;6.40;1.00;;;;;;5048670;28;20385;-62
2023/01/31 08:53:42;;;;;;;9.70;2.80;;;6.40;1.00;;;;;;5049552;28;20377;-62
2023/01/31 08:56:09;;;;;;;12.75;3.40;;;7.00;1.00;;;;;;5048172;28;20397;-62
2023/01/31 08:58:37;;;;;;;14.45;3.60;;;6.40;1.00;;;;;;5049514;28;20409;-62
2023/01/31 09:01:11;;;;;;;12.40;3.33;;;6.70;1.00;;;;;;5048601;28;20482;-62
2023/01/31 09:03:37;;;;;;;10.82;3.30;;;6.40;1.00;;;;;;5049508;28;20380;-62
2023/01/31 09:06:05;;;;;;;11.25;2.80;;;6.30;1.00;;;;;;5048233;28;20382;-62
2023/01/31 09:08:31;;;;;;;9.15;2.70;;;6.30;1.00;;;;;;5052074;28;20439;-62
2023/01/31 09:11:00;;;;;;;12.57;4.10;;;6.20;1.00;;;;;;5052820;28;20444;-59
2023/01/31 09:13:27;;;;;;;10.15;2.78;;;6.20;1.00;;;;;;5052803;28;20382;-62
2023/01/31 09:16:07;;;;;;;12.57;3.10;;;6.30;1.00;;;;;;5052657;28;20377;-64
2023/01/31 09:18:33;;;;;;;9.85;3.70;;;6.60;1.00;;;;;;5052564;28;20401;-62
2023/01/31 09:21:07;;;;;;;12.35;3.88;;;6.90;1.00;;;;;;5052407;28;20369;-60
2023/01/31 09:23:34;;;;;;;10.13;4.10;;;7.10;1.00;;;;;;5052795;28;20373;-63
2023/01/31 09:26:00;;;;;;;12.07;3.95;;;7.30;1.00;;;;;;5052574;28;20539;-61
2023/01/31 09:28:26;;;;;;;16.27;5.30;;;7.10;1.00;;;;;;5052513;28;20472;-63
2023/01/31 09:30:52;;;;;;;12.93;3.72;;;7.10;1.00;;;;;;5052617;28;20447;-62
2023/01/31 09:33:19;;;;;;;11.90;3.70;;;7.90;1.00;;;;;;5052023;28;20659;-62
2023/01/31 09:35:59;;;;;;;9.45;2.75;;;6.50;1.00;;;;;;5052455;28;20460;-62
2023/01/31 09:38:24;;;;;;;14.23;3.90;;;6.60;1.00;;;;;;5052150;28;20407;-62
2023/01/31 09:40:51;;;;;;;13.10;2.90;;;7.30;1.00;;;;;;5052704;28;20397;-62
2023/01/31 09:43:20;;;;;;;9.23;2.10;;;6.20;1.00;;;;;;5051425;28;20468;-62
2023/01/31 09:45:48;;;;;;;8.65;2.50;;;5.90;1.00;;;;;;5052869;28;20457;-62
2023/01/31 09:48:23;;;;;;;10.90;2.40;;;6.40;1.00;;;;;;5051524;28;20396;-60
2023/01/31 09:50:50;;;;;;;10.50;2.28;;;7.00;1.00;;;;;;5052515;28;20407;-60
2023/01/31 09:53:20;;;;;;;10.85;2.30;;;5.70;1.00;;;;;;5051292;28;20382;-60
2023/01/31 09:56:08;;;;;;;9.80;2.20;;;5.70;1.00;;;;;;5052185;28;20397;-60
2023/01/31 09:59:03;;;;;;;10.52;3.40;;;5.60;1.00;;;;;;5052049;28;20416;-60
2023/01/31 10:01:43;;;;;;;10.23;2.73;;;5.60;1.00;;;;;;5052165;28;20902;-59
2023/01/31 10:04:23;;;;;;;8.50;2.80;;;5.60;1.00;;;;;;5051397;28;20378;-59
2023/01/31 10:07:02;;;;;;;10.95;3.00;;;5.50;1.00;;;;;;5051743;28;20396;-60
2023/01/31 10:09:49;;;;;;;9.27;2.53;;;5.60;1.00;;;;;;5051799;28;20484;-62
2023/01/31 10:12:33;;;;;;;10.30;2.97;;;5.60;1.00;;;;;;5050454;28;20439;-60
2023/01/31 10:15:31;;;;;;;13.93;3.65;;;5.60;1.00;;;;;;5051535;28;20762;-62
2023/01/31 10:18:23;;;;;;;7.70;2.17;;;5.80;1.00;;;;;;5051605;28;20413;-62
2023/01/31 10:20:53;;;;;;;9.60;2.20;;;5.80;1.00;;;;;;5042658;28;20402;-63
2023/01/31 10:23:19;;;;;;;12.68;3.17;;;5.70;1.00;;;;;;5050673;28;20569;-59
2023/01/31 10:25:54;;;;;;;9.07;2.90;;;5.50;1.00;;;;;;5066149;28;20944;-60
2023/01/31 10:28:42;;;;;;;7.63;2.20;;;5.50;1.00;;;;;;5050363;28;20385;-62
2023/01/31 10:31:26;;;;;;;8.45;2.50;;;5.90;1.00;;;;;;5019678;28;20417;-60
2023/01/31 10:33:58;;;;;;;13.55;3.08;;;5.90;1.00;;;;;;5051233;28;20493;-60
2023/01/31 10:36:34;;;;;;;9.63;2.00;;;6.00;1.00;;;;;;5050291;28;20389;-62
2023/01/31 10:39:28;;;;;;;8.90;2.63;;;6.70;1.00;;;;;;5050711;28;20556;-59
2023/01/31 10:42:26;;;;;;;10.30;3.08;;;6.10;1.00;;;;;;5051176;28;20381;-60
2023/01/31 10:45:07;;;;;;;6.50;2.30;;;5.80;1.00;;;;;;5051571;28;20488;-60
2023/01/31 10:47:53;;;;;;;9.55;2.95;;;5.80;1.00;;;;;;5050959;28;20398;-60
2023/01/31 10:50:42;;;;;;;11.10;2.72;;;5.70;1.00;;;;;;5050099;28;20385;-60
2023/01/31 10:53:10;;;;;;;9.07;2.90;;;5.90;1.00;;;;;;5050075;28;20395;-62
2023/01/31 10:56:04;;;;;;;12.55;2.67;;;6.10;1.00;;;;;;5050914;28;20420;-62
2023/01/31 10:58:30;;;;;;;10.23;2.55;;;5.90;1.00;;;;;;5027910;28;20481;-59
2023/01/31 11:00:57;;;;;;;9.43;2.42;;;6.90;1.00;;;;;;5050895;28;20382;-59
2023/01/31 11:03:23;;;;;;;9.98;2.50;;;5.80;1.00;;;;;;5050067;28;20426;-60
2023/01/31 11:05:54;;;;;;;13.00;3.13;;;5.80;1.00;;;;;;5051231;28;20381;-60
2023/01/31 11:08:44;;;;;;;8.70;2.80;;;6.50;1.00;;;;;;5049870;28;20390;-62
2023/01/31 11:11:16;;;;;;;11.80;2.50;;;6.10;1.00;;;;;;5050062;28;20389;-62
2023/01/31 11:14:01;;;;;;;11.23;3.40;;;6.20;1.00;;;;;;5050302;28;20396;-62
2023/01/31 11:16:38;;;;;;;12.50;3.10;;;6.10;1.00;;;;;;5049967;28;20424;-63
2023/01/31 11:19:14;;;;;;;10.30;2.85;;;6.10;1.00;;;;;;5049420;28;20414;-62
2023/01/31 11:21:40;;;;;;;10.05;2.85;;;6.00;1.00;;;;;;5050731;28;20503;-62
2023/01/31 11:24:19;;;;;;;8.93;3.03;;;5.90;1.00;;;;;;5049764;28;20817;-60
2023/01/31 11:26:57;;;;;;;9.32;2.50;;;5.80;1.00;;;;;;5050057;28;20786;-60
2023/01/31 11:29:36;;;;;;;12.55;3.55;;;5.90;1.00;;;;;;5049617;28;20391;-62
2023/01/31 11:32:13;;;;;;;9.07;2.83;;;6.10;1.00;;;;;;5049595;28;20404;-59
2023/01/31 11:35:03;;;;;;;5.80;1.77;;;6.00;1.00;;;;;;5050278;28;20706;-59
2023/01/31 11:37:30;;;;;;;5.60;1.35;;;5.90;1.00;;;;;;5050776;28;20503;-59
2023/01/31 11:40:01;;;;;;;8.23;1.50;;;5.70;1.00;;;;;;5050331;28;20405;-59
2023/01/31 11:42:27;;;;;;;7.80;1.20;;;5.70;1.00;;;;;;5049335;28;20927;-60
2023/01/31 11:45:02;;;;;;;7.22;1.80;;;5.90;1.00;;;;;;5050335;28;20472;-60
2023/01/31 11:47:33;;;;;;;8.20;1.70;;;5.80;1.00;;;;;;5050010;28;20380;-59
2023/01/31 11:50:01;;;;;;;9.90;2.63;;;5.90;1.00;;;;;;5050056;28;20385;-60
2023/01/31 11:52:32;;;;;;;5.60;1.38;;;6.90;1.00;;;;;;5049716;28;20474;-60
2023/01/31 11:55:03;;;;;;;9.20;2.42;;;5.90;1.00;;;;;;5049797;28;20397;-59
2023/01/31 11:57:35;;;;;;;8.95;1.52;;;5.80;1.00;;;;;;5049952;28;20484;-59
2023/01/31 12:00:05;;;;;;;5.00;0.80;;;5.70;1.00;;;;;;5049872;28;20389;-59
2023/01/31 12:02:35;;;;;;;8.07;2.05;;;5.50;1.00;;;;;;5049868;28;20396;-59
2023/01/31 12:05:06;;;;;;;8.43;1.40;;;5.60;1.00;;;;;;5050346;28;20389;-60
2023/01/31 12:07:52;;;;;;;7.80;1.50;;;5.60;1.00;;;;;;5049672;28;20488;-59
2023/01/31 12:10:41;;;;;;;9.88;2.30;;;5.50;1.00;;;;;;5049279;28;20420;-59
2023/01/31 12:13:16;;;;;;;5.30;1.17;;;5.60;1.00;;;;;;5048839;28;20389;-59
2023/01/31 12:16:03;;;;;;;5.18;1.20;;;6.60;1.00;;;;;;5049651;28;20383;-59
2023/01/31 12:18:37;;;;;;;6.90;1.40;;;5.60;1.00;;;;;;5049510;28;20409;-59
2023/01/31 12:21:24;;;;;;;5.57;1.05;;;5.70;1.00;;;;;;5049148;28;20870;-57
2023/01/31 12:23:55;;;;;;;7.28;1.80;;;5.80;1.00;;;;;;5049801;28;20380;-59
2023/01/31 12:26:37;;;;;;;8.20;2.00;;;5.70;1.00;;;;;;5048678;28;20420;-59
2023/01/31 12:29:02;;;;;;;9.88;1.50;;;5.70;1.00;;;;;;5049159;28;20898;-57
2023/01/31 12:31:48;;;;;;;5.70;1.27;;;5.80;1.00;;;;;;5049027;28;20439;-59
2023/01/31 12:34:28;;;;;;;7.80;1.70;;;5.70;1.00;;;;;;5048740;28;20405;-59
2023/01/31 12:37:02;;;;;;;8.00;1.20;;;5.70;1.00;;;;;;5049413;28;20779;-59
2023/01/31 12:39:58;;;;;;;5.10;1.35;;;5.90;1.00;;;;;;5048994;28;20405;-59
2023/01/31 12:43:04;;;;;;;7.00;1.80;;;5.70;1.00;;;;;;5049333;28;20388;-59
2023/01/31 12:45:30;;;;;;;6.90;1.40;;;5.70;1.00;;;;;;5019298;28;20401;-59
2023/01/31 12:47:56;;;;;;;5.23;1.17;;;5.40;1.00;;;;;;5052913;28;20390;-59
2023/01/31 12:50:21;;;;;;;8.40;2.00;;;5.40;1.00;;;;;;5052537;28;21038;-59
2023/01/31 12:53:31;;;;;;;8.17;1.63;;;5.40;1.00;;;;;;5053169;28;20464;-59
2023/01/31 12:56:25;;;;;;;7.00;1.52;;;5.50;1.00;;;;;;4990912;28;20510;-59
2023/01/31 12:58:57;;;;;;;13.00;2.10;;;5.60;1.00;;;;;;5022969;28;20426;-59
2023/01/31 13:01:50;;;;;;;6.10;1.70;;;5.70;1.00;;;;;;5052153;28;20825;-59
2023/01/31 13:04:31;;;;;;;11.18;1.80;;;5.50;1.00;;;;;;5052263;28;20382;-59
2023/01/31 13:07:01;;;;;;;10.00;1.73;;;5.60;1.00;;;;;;5053285;28;20389;-59
2023/01/31 13:09:31;;;;;;;5.40;1.50;;;6.30;1.00;;;;;;5053405;28;20373;-60
2023/01/31 13:12:08;;;;;;;5.13;1.20;;;5.70;1.00;;;;;;5053086;28;20384;-60
2023/01/31 13:14:42;;;;;;;7.50;1.88;;;5.70;1.00;;;;;;5052963;28;20389;-59
2023/01/31 13:17:12;;;;;;;6.68;1.38;;;5.80;1.00;;;;;;5052412;28;20393;-59
2023/01/31 13:19:44;;;;;;;7.45;1.95;;;5.70;1.00;;;;;;5052592;28;20750;-60
2023/01/31 13:22:39;;;;;;;8.63;2.10;;;6.40;1.00;;;;;;5051839;28;20414;-60
2023/01/31 13:25:40;;;;;;;6.90;1.50;;;5.80;1.00;;;;;;5051920;28;20424;-60
2023/01/31 13:28:16;;;;;;;8.45;1.40;;;5.80;1.00;;;;;;5051917;28;20500;-57